createdAt,value
2018-12-04T00:01:30.999Z,97.61
2018-12-04T00:04:18.788Z,97.85
2018-12-04T00:13:07.754Z,96.66
2018-12-04T00:15:42.921Z,96.51
2018-12-04T00:18:20.104Z,96.29
2018-12-04T00:20:56.451Z,95.79
2018-12-04T00:23:31.774Z,96.16
2018-12-04T00:26:06.648Z,96.39
2018-12-04T00:28:40.263Z,95.99
2018-12-04T00:31:15.501Z,95.97
2018-12-04T00:36:45.573Z,95.85
2018-12-04T00:39:15.249Z,96.92
2018-12-04T00:41:44.922Z,96.98
2018-12-04T00:44:26.382Z,97.79
2018-12-04T00:47:01.812Z,98.63
2018-12-04T00:49:35.307Z,99.91
2018-12-04T00:52:05.042Z,100.00
2018-12-04T00:54:34.721Z,100.00
2018-12-04T00:57:05.771Z,100.00
2018-12-04T00:59:35.534Z,100.00
2018-12-04T01:02:05.383Z,100.00
2018-12-04T01:04:35.735Z,100.00
2018-12-04T01:07:05.717Z,100.00
2018-12-04T01:09:35.606Z,100.00
2018-12-04T01:12:05.569Z,100.00
2018-12-04T01:14:35.252Z,100.00
2018-12-04T01:17:05.102Z,100.00
2018-12-04T01:19:34.946Z,100.00
2018-12-04T01:22:04.670Z,100.00
2018-12-04T01:24:34.952Z,100.00
2018-12-04T01:27:09.543Z,100.00
2018-12-04T01:29:45.440Z,100.00
2018-12-04T01:32:27.016Z,100.00
2018-12-04T01:35:02.608Z,100.00
2018-12-04T01:37:34.085Z,100.00
2018-12-04T01:40:05.345Z,100.00
2018-12-04T01:42:38.482Z,100.00
2018-12-04T01:45:16.538Z,100.00
2018-12-04T01:47:48.066Z,100.00
2018-12-04T01:50:17.721Z,100.00
2018-12-04T01:52:47.561Z,100.00
2018-12-04T01:55:23.245Z,100.00
2018-12-04T01:58:15.657Z,100.00
2018-12-04T02:00:45.663Z,100.00
2018-12-04T02:03:16.754Z,100.00
2018-12-04T02:05:49.853Z,100.00
2018-12-04T02:08:25.157Z,100.00
2018-12-04T02:10:57.697Z,100.00
2018-12-04T02:13:34.245Z,100.00
2018-12-04T02:16:11.442Z,100.00
2018-12-04T02:18:46.671Z,100.00
2018-12-04T02:21:18.941Z,100.00
2018-12-04T02:23:48.682Z,100.00
2018-12-04T02:26:18.449Z,100.00
2018-12-04T02:28:48.803Z,100.00
2018-12-04T02:31:30.918Z,100.00
2018-12-04T02:37:08.277Z,100.00
2018-12-04T02:39:43.769Z,100.00
2018-12-04T02:42:21.082Z,100.00
2018-12-04T02:44:57.787Z,100.00
2018-12-04T02:47:31.025Z,100.00
2018-12-04T02:50:17.456Z,100.00
2018-12-04T02:52:47.966Z,100.00
2018-12-04T02:58:24.645Z,100.00
2018-12-04T03:00:58.417Z,100.00
2018-12-04T03:03:28.152Z,100.00
2018-12-04T03:06:07.894Z,100.00
2018-12-04T03:08:56.312Z,100.00
2018-12-04T03:11:26.065Z,100.00
2018-12-04T03:13:55.865Z,100.00
2018-12-04T03:16:25.721Z,100.00
2018-12-04T03:18:55.606Z,100.00
2018-12-04T03:21:25.294Z,99.88
2018-12-04T03:23:55.170Z,99.99
2018-12-04T03:26:24.857Z,100.00
2018-12-04T03:28:55.615Z,100.00
2018-12-04T03:31:26.075Z,100.00
2018-12-04T03:33:55.810Z,99.83
2018-12-04T03:36:25.524Z,99.87
2018-12-04T03:38:55.368Z,99.90
2018-12-04T03:41:25.051Z,99.70
2018-12-04T03:43:54.830Z,98.91
2018-12-04T03:46:24.613Z,98.40
2018-12-04T03:48:55.485Z,97.91
2018-12-04T03:51:25.441Z,98.02
2018-12-04T03:53:55.760Z,98.11
2018-12-04T03:56:25.493Z,97.82
2018-12-04T03:58:55.267Z,97.20
2018-12-04T04:01:25.144Z,97.28
2018-12-04T04:03:54.962Z,96.72
2018-12-04T04:06:24.786Z,96.70
2018-12-04T04:08:54.539Z,96.88
2018-12-04T04:11:24.401Z,97.21
2018-12-04T04:13:54.261Z,97.53
2018-12-04T04:16:24.901Z,97.11
2018-12-04T04:18:54.693Z,96.97
2018-12-04T04:21:24.487Z,97.40
2018-12-04T04:23:54.368Z,97.36
2018-12-04T04:26:24.370Z,96.98
2018-12-04T04:28:54.747Z,97.28
2018-12-04T04:31:25.443Z,96.81
2018-12-04T04:33:55.354Z,95.63
2018-12-04T04:36:25.062Z,95.88
2018-12-04T04:38:54.862Z,96.46
2018-12-04T04:41:24.552Z,97.05
2018-12-04T04:43:54.789Z,97.86
2018-12-04T04:46:24.498Z,97.79
2018-12-04T04:48:54.439Z,98.05
2018-12-04T04:51:24.221Z,97.68
2018-12-04T04:53:54.015Z,98.39
2018-12-04T04:56:23.903Z,98.12
2018-12-04T04:58:54.293Z,96.98
2018-12-04T05:01:24.122Z,97.26
2018-12-04T05:03:54.094Z,96.86
2018-12-04T05:06:23.845Z,96.66
2018-12-04T05:08:53.767Z,96.55
2018-12-04T05:11:23.559Z,97.16
2018-12-04T05:13:54.213Z,97.62
2018-12-04T05:16:23.985Z,97.10
2018-12-04T05:18:53.674Z,96.69
2018-12-04T05:21:23.425Z,93.77
2018-12-04T05:23:53.098Z,93.16
2018-12-04T05:26:22.781Z,92.10
2018-12-04T05:28:52.549Z,89.39
2018-12-04T05:31:26.914Z,88.78
2018-12-04T05:34:00.652Z,88.14
2018-12-04T05:36:33.201Z,85.87
2018-12-04T05:39:08.450Z,85.96
2018-12-04T05:41:39.053Z,85.84
2018-12-04T05:44:14.329Z,85.96
2018-12-04T05:46:44.072Z,86.91
2018-12-04T05:49:13.837Z,87.35
2018-12-04T05:51:43.534Z,87.93
2018-12-04T05:54:16.177Z,87.64
2018-12-04T05:56:45.896Z,87.85
2018-12-04T05:59:15.964Z,88.05
2018-12-04T06:01:45.678Z,88.22
2018-12-04T06:04:15.562Z,88.03
2018-12-04T06:06:45.317Z,87.77
2018-12-04T06:09:15.244Z,86.94
2018-12-04T06:11:45.006Z,85.82
2018-12-04T06:14:15.222Z,86.02
2018-12-04T06:16:44.957Z,86.33
2018-12-04T06:19:14.657Z,87.67
2018-12-04T06:21:44.308Z,87.17
2018-12-04T06:24:14.096Z,86.64
2018-12-04T06:26:43.916Z,87.51
2018-12-04T06:29:13.773Z,87.29
2018-12-04T06:31:43.508Z,86.96
2018-12-04T06:34:13.308Z,86.31
2018-12-04T06:36:46.609Z,86.55
2018-12-04T06:39:22.124Z,86.07
2018-12-04T06:41:53.106Z,85.79
2018-12-04T06:44:28.827Z,85.68
2018-12-04T06:46:58.664Z,85.90
2018-12-04T06:49:28.627Z,85.64
2018-12-04T06:52:00.747Z,86.07
2018-12-04T06:54:34.884Z,85.51
2018-12-04T06:57:05.272Z,85.54
2018-12-04T06:59:40.212Z,86.29
2018-12-04T07:02:15.048Z,86.20
2018-12-04T07:04:48.818Z,86.49
2018-12-04T07:07:22.891Z,86.20
2018-12-04T07:09:53.452Z,86.34
2018-12-04T07:12:25.512Z,86.35
2018-12-04T07:14:55.777Z,85.99
2018-12-04T07:17:31.685Z,85.52
2018-12-04T07:20:01.710Z,85.02
2018-12-04T07:22:31.587Z,84.86
2018-12-04T07:25:01.448Z,84.44
2018-12-04T07:27:31.308Z,84.12
2018-12-04T07:30:07.886Z,83.84
2018-12-04T07:32:42.791Z,83.29
2018-12-04T07:35:15.263Z,82.71
2018-12-04T07:37:48.479Z,82.79
2018-12-04T07:40:21.695Z,82.23
2018-12-04T07:42:57.039Z,81.66
2018-12-04T07:45:43.893Z,80.38
2018-12-04T07:48:13.756Z,79.27
2018-12-04T07:50:44.027Z,78.56
2018-12-04T07:53:13.889Z,78.41
2018-12-04T07:55:49.865Z,79.04
2018-12-04T07:58:21.337Z,79.60
2018-12-04T08:00:54.521Z,79.10
2018-12-04T08:03:31.814Z,78.96
2018-12-04T08:06:11.197Z,78.73
2018-12-04T08:08:40.943Z,78.33
2018-12-04T08:11:10.703Z,76.27
2018-12-04T08:13:40.439Z,75.23
2018-12-04T08:16:10.182Z,75.08
2018-12-04T08:18:39.905Z,74.39
2018-12-04T08:21:09.587Z,73.84
2018-12-04T08:23:39.289Z,73.87
2018-12-04T08:26:09.019Z,72.81
2018-12-04T08:28:38.738Z,73.51
2018-12-04T08:31:08.434Z,75.02
2018-12-04T08:33:38.050Z,75.71
2018-12-04T08:36:08.726Z,76.59
2018-12-04T08:38:38.422Z,77.02
2018-12-04T08:41:08.189Z,76.94
2018-12-04T08:43:37.890Z,75.97
2018-12-04T08:46:07.622Z,76.58
2018-12-04T08:48:37.274Z,76.16
2018-12-04T08:51:07.083Z,76.16
2018-12-04T08:53:36.850Z,75.43
2018-12-04T08:56:06.641Z,75.40
2018-12-04T08:58:36.454Z,76.09
2018-12-04T09:01:06.150Z,75.43
2018-12-04T09:03:35.891Z,76.41
2018-12-04T09:09:09.578Z,76.12
2018-12-04T09:11:39.446Z,75.16
2018-12-04T09:14:09.170Z,74.77
2018-12-04T09:16:38.933Z,74.92
2018-12-04T09:19:09.025Z,74.33
2018-12-04T09:21:38.926Z,74.14
2018-12-04T09:24:14.550Z,73.64
2018-12-04T09:26:44.551Z,73.30
2018-12-04T09:29:14.374Z,72.43
2018-12-04T09:31:44.254Z,73.40
2018-12-04T09:34:14.022Z,71.93
2018-12-04T09:36:43.883Z,71.96
2018-12-04T09:39:13.710Z,71.75
2018-12-04T09:41:43.720Z,71.68
2018-12-04T09:44:13.572Z,71.67
2018-12-04T09:46:43.334Z,70.59
2018-12-04T09:49:13.158Z,69.31
2018-12-04T09:51:42.910Z,69.50
2018-12-04T09:54:13.566Z,69.98
2018-12-04T09:56:43.536Z,70.09
2018-12-04T09:59:13.317Z,69.37
2018-12-04T10:01:43.118Z,68.58
2018-12-04T10:04:13.001Z,69.27
2018-12-04T10:06:42.726Z,69.41
2018-12-04T10:09:12.451Z,70.85
2018-12-04T10:11:42.297Z,71.81
2018-12-04T10:14:12.067Z,73.90
2018-12-04T10:16:41.891Z,74.88
2018-12-04T10:19:11.707Z,74.79
2018-12-04T10:21:41.426Z,74.08
2018-12-04T10:24:11.089Z,73.10
2018-12-04T10:26:40.841Z,71.99
2018-12-04T10:29:10.565Z,73.11
2018-12-04T10:31:40.438Z,71.25
2018-12-04T10:34:10.163Z,70.21
2018-12-04T10:36:39.856Z,70.97
2018-12-04T10:39:10.035Z,70.15
2018-12-04T10:41:39.789Z,70.54
2018-12-04T10:44:09.521Z,71.62
2018-12-04T10:46:39.457Z,68.77
2018-12-04T10:49:09.224Z,68.65
2018-12-04T10:51:38.992Z,70.19
2018-12-04T10:54:08.808Z,71.01
2018-12-04T10:56:38.630Z,70.77
2018-12-04T10:59:08.392Z,70.72
2018-12-04T11:01:43.322Z,71.95
2018-12-04T11:04:13.062Z,73.02
2018-12-04T11:06:44.534Z,73.81
2018-12-04T11:09:14.260Z,74.82
2018-12-04T11:11:44.086Z,74.18
2018-12-04T11:14:14.446Z,73.07
2018-12-04T11:16:44.328Z,73.76
2018-12-04T11:35:03.970Z,73.50
2018-12-04T11:37:45.514Z,72.02
2018-12-04T11:40:33.362Z,71.84
2018-12-04T11:52:59.082Z,71.49
2018-12-04T12:14:24.918Z,66.80
2018-12-04T12:32:48.668Z,69.12
2018-12-04T12:35:29.404Z,68.80
2018-12-04T12:38:02.262Z,68.91
2018-12-04T12:40:45.688Z,67.86
2018-12-04T12:43:21.966Z,68.23
2018-12-04T12:46:00.966Z,68.47
2018-12-04T12:48:36.201Z,68.55
2018-12-04T12:57:22.249Z,70.21
2018-12-04T12:59:52.153Z,67.93
2018-12-04T13:05:40.453Z,68.01
2018-12-04T13:08:19.876Z,67.26
2018-12-04T13:11:05.648Z,68.85
2018-12-04T13:13:49.424Z,69.26
2018-12-04T13:16:19.478Z,66.98
2018-12-04T13:18:49.365Z,67.82
2018-12-04T13:21:19.407Z,68.61
2018-12-04T13:23:52.310Z,68.33
2018-12-04T13:26:27.566Z,68.84
2018-12-04T13:29:02.726Z,66.39
2018-12-04T13:31:32.436Z,67.12
2018-12-04T13:34:05.675Z,67.36
2018-12-04T13:36:56.428Z,67.22
2018-12-04T13:39:26.820Z,68.54
2018-12-04T13:42:04.208Z,68.41
2018-12-04T13:44:33.908Z,68.51
2018-12-04T13:47:03.720Z,67.50
2018-12-04T13:49:33.822Z,67.37
2018-12-04T13:52:03.872Z,67.15
2018-12-04T13:54:34.295Z,66.85
2018-12-04T13:57:08.589Z,65.35
2018-12-04T13:59:38.516Z,65.38
2018-12-04T14:02:08.461Z,65.23
2018-12-04T14:04:38.691Z,65.37
2018-12-04T14:07:08.721Z,66.15
2018-12-04T14:09:38.768Z,65.25
2018-12-04T14:12:08.588Z,65.86
2018-12-04T14:14:38.356Z,66.37
2018-12-04T14:17:08.383Z,66.26
2018-12-04T14:19:38.276Z,66.31
2018-12-04T14:22:07.982Z,66.27
2018-12-04T14:24:38.327Z,66.09
2018-12-04T14:27:08.142Z,66.55
2018-12-04T14:29:37.931Z,65.99
2018-12-04T14:32:07.804Z,66.66
2018-12-04T14:34:37.551Z,66.51
2018-12-04T14:37:07.366Z,65.07
2018-12-04T14:39:37.308Z,65.24
2018-12-04T14:42:07.193Z,65.79
2018-12-04T14:44:36.990Z,66.13
2018-12-04T14:47:06.938Z,66.13
2018-12-04T14:49:36.807Z,65.53
2018-12-04T14:52:06.863Z,64.86
2018-12-04T14:54:36.675Z,65.03
2018-12-04T14:57:06.888Z,65.02
2018-12-04T14:59:36.864Z,65.88
2018-12-04T15:02:07.314Z,66.69
2018-12-04T15:04:37.865Z,67.38
2018-12-04T15:07:07.987Z,68.70
2018-12-04T15:09:37.887Z,70.47
2018-12-04T15:12:09.002Z,71.52
2018-12-04T15:14:39.416Z,71.80
2018-12-04T15:17:09.412Z,70.29
2018-12-04T15:19:39.503Z,69.10
2018-12-04T15:22:10.194Z,66.95
2018-12-04T15:24:40.333Z,65.78
2018-12-04T15:27:26.867Z,64.46
2018-12-04T15:29:58.647Z,64.18
2018-12-04T15:32:28.944Z,63.45
2018-12-04T15:34:59.234Z,63.25
2018-12-04T15:37:29.439Z,62.67
2018-12-04T15:39:59.377Z,63.53
2018-12-04T15:42:29.735Z,63.15
2018-12-04T15:45:00.519Z,62.91
2018-12-04T15:47:46.949Z,62.09
2018-12-04T15:50:16.768Z,62.77
2018-12-04T15:52:46.573Z,62.48
2018-12-04T15:55:33.180Z,62.68
2018-12-04T15:58:03.719Z,63.45
2018-12-04T16:00:33.776Z,63.29
2018-12-04T16:03:07.134Z,63.00
2018-12-04T16:05:37.196Z,62.75
2018-12-04T16:08:07.107Z,63.39
2018-12-04T16:10:37.523Z,63.71
2018-12-04T16:13:07.586Z,63.25
2018-12-04T16:15:39.495Z,63.39
2018-12-04T16:18:09.915Z,63.78
2018-12-04T16:20:41.032Z,63.40
2018-12-04T16:23:11.151Z,63.82
2018-12-04T16:25:42.286Z,64.53
2018-12-04T16:28:12.375Z,64.62
2018-12-04T16:30:42.417Z,64.66
2018-12-04T16:33:13.571Z,65.40
2018-12-04T16:35:45.255Z,64.97
2018-12-04T16:38:15.972Z,66.00
2018-12-04T16:40:45.787Z,65.90
2018-12-04T16:43:15.620Z,65.66
2018-12-04T16:45:46.042Z,66.32
2018-12-04T16:48:15.988Z,66.64
2018-12-04T16:50:46.079Z,66.50
2018-12-04T16:53:19.043Z,67.64
2018-12-04T16:55:49.033Z,67.43
2018-12-04T16:58:19.060Z,67.66
2018-12-04T17:00:49.331Z,68.35
2018-12-04T17:03:19.347Z,68.76
2018-12-04T17:05:49.359Z,68.98
2018-12-04T17:08:19.410Z,69.87
2018-12-04T17:10:49.357Z,70.07
2018-12-04T17:13:20.787Z,71.76
2018-12-04T17:15:50.371Z,72.47
2018-12-04T17:18:20.687Z,72.64
2018-12-04T17:20:50.367Z,72.90
2018-12-04T17:23:20.221Z,73.73
2018-12-04T17:25:50.119Z,74.05
2018-12-04T17:28:19.947Z,74.68
2018-12-04T17:30:49.809Z,75.26
2018-12-04T17:33:19.782Z,75.76
2018-12-04T17:35:50.713Z,75.01
2018-12-04T17:38:20.269Z,75.53
2018-12-04T17:40:51.117Z,75.63
2018-12-04T17:43:20.957Z,75.77
2018-12-04T17:45:50.437Z,75.15
2018-12-04T17:48:20.162Z,75.33
2018-12-04T17:50:50.060Z,75.09
2018-12-04T17:53:19.776Z,73.77
2018-12-04T17:55:50.067Z,73.86
2018-12-04T17:58:25.469Z,74.06
2018-12-04T18:01:19.757Z,73.77
2018-12-04T18:03:54.430Z,73.55
2018-12-04T18:06:29.999Z,73.39
2018-12-04T18:09:27.251Z,73.66
2018-12-04T18:12:02.779Z,73.26
2018-12-04T18:20:50.218Z,73.86
2018-12-04T18:44:46.103Z,74.77
2018-12-04T18:47:16.505Z,74.96
2018-12-04T18:50:19.170Z,75.12
2018-12-04T19:02:31.093Z,76.40
2018-12-04T19:05:16.478Z,77.09
2018-12-04T19:07:48.328Z,77.15
2018-12-04T20:21:10.461Z,79.25
2018-12-04T20:23:48.233Z,79.64
2018-12-04T21:05:56.438Z,81.94
2018-12-04T21:20:50.930Z,82.80
2018-12-04T21:29:42.391Z,82.22
2018-12-04T21:41:48.117Z,82.60
2018-12-04T21:53:58.235Z,82.59
2018-12-04T22:11:54.556Z,82.67
2018-12-04T22:14:31.018Z,83.50
2018-12-04T22:17:06.724Z,83.28
2018-12-04T22:19:42.037Z,83.82
2018-12-04T22:22:18.756Z,83.77
2018-12-04T22:24:52.139Z,83.72
2018-12-04T22:27:34.100Z,83.51
2018-12-04T22:30:10.431Z,83.85
2018-12-04T22:32:53.732Z,83.63
2018-12-04T22:35:23.976Z,84.35
2018-12-04T23:39:13.560Z,89.71
2018-12-04T23:41:46.278Z,89.45
2018-12-04T23:44:26.605Z,89.36
2018-12-04T23:47:03.967Z,89.72
2018-12-04T23:49:36.615Z,89.84
